sensor_id;sensor_type;location;lat;lon;timestamp;pressure;altitude;pressure_sealevel;temperature;humidity
66668;BME280;57205;51.438;-2.006;2023-01-15T00:01:30;99390.78;;;3.46;100.00
66668;BME280;57205;51.438;-2.006;2023-01-15T00:03:58;99380.47;;;3.44;100.00
66668;BME280;57205;51.438;-2.006;2023-01-15T00:06:25;99379.13;;;3.42;100.00
66668;BME280;57205;51.438;-2.006;2023-01-15T00:08:50;99387.84;;;3.42;100.00
66668;BME280;57205;51.438;-2.006;2023-01-15T00:11:16;99371.50;;;3.45;100.00
66668;BME280;57205;51.438;-2.006;2023-01-15T00:13:42;99364.34;;;3.46;100.00
66668;BME280;57205;51.438;-2.006;2023-01-15T00:18:33;99368.59;;;3.47;100.00
66668;BME280;57205;51.438;-2.006;2023-01-15T00:20:59;99360.41;;;3.48;100.00
66668;BME280;57205;51.438;-2.006;2023-01-15T00:23:24;99362.81;;;3.50;100.00
66668;BME280;57205;51.438;-2.006;2023-01-15T00:26:10;99363.59;;;3.50;100.00
66668;BME280;57205;51.438;-2.006;2023-01-15T00:28:57;99372.91;;;3.53;100.00
66668;BME280;57205;51.438;-2.006;2023-01-15T00:31:23;99365.25;;;3.56;100.00
66668;BME280;57205;51.438;-2.006;2023-01-15T00:33:48;99365.31;;;3.61;100.00
66668;BME280;57205;51.438;-2.006;2023-01-15T00:36:14;99365.31;;;3.61;100.00
66668;BME280;57205;51.438;-2.006;2023-01-15T00:38:39;99352.38;;;3.65;100.00
66668;BME280;57205;51.438;-2.006;2023-01-15T00:41:04;99345.03;;;3.72;100.00
66668;BME280;57205;51.438;-2.006;2023-01-15T00:43:29;99346.13;;;3.76;100.00
66668;BME280;57205;51.438;-2.006;2023-01-15T00:45:55;99340.84;;;3.76;100.00
66668;BME280;57205;51.438;-2.006;2023-01-15T00:48:20;99336.09;;;3.78;100.00
66668;BME280;57205;51.438;-2.006;2023-01-15T00:50:45;99330.81;;;3.78;100.00
66668;BME280;57205;51.438;-2.006;2023-01-15T00:53:11;99337.72;;;3.79;100.00
66668;BME280;57205;51.438;-2.006;2023-01-15T00:55:36;99334.53;;;3.77;100.00
66668;BME280;57205;51.438;-2.006;2023-01-15T00:58:01;99327.03;;;3.69;100.00
66668;BME280;57205;51.438;-2.006;2023-01-15T01:00:26;99324.34;;;3.64;100.00
66668;BME280;57205;51.438;-2.006;2023-01-15T01:02:52;99323.78;;;3.62;100.00
66668;BME280;57205;51.438;-2.006;2023-01-15T01:05:17;99315.78;;;3.57;100.00
66668;BME280;57205;51.438;-2.006;2023-01-15T01:07:42;99321.09;;;3.57;100.00
66668;BME280;57205;51.438;-2.006;2023-01-15T01:10:08;99324.44;;;3.47;100.00
66668;BME280;57205;51.438;-2.006;2023-01-15T01:12:33;99326.78;;;3.44;100.00
66668;BME280;57205;51.438;-2.006;2023-01-15T01:14:58;99318.31;;;3.42;100.00
66668;BME280;57205;51.438;-2.006;2023-01-15T01:17:24;99321.44;;;3.39;100.00
66668;BME280;57205;51.438;-2.006;2023-01-15T01:19:49;99314.03;;;3.36;100.00
66668;BME280;57205;51.438;-2.006;2023-01-15T01:22:14;99330.34;;;3.33;100.00
66668;BME280;57205;51.438;-2.006;2023-01-15T01:24:39;99324.28;;;3.32;100.00
66668;BME280;57205;51.438;-2.006;2023-01-15T01:27:05;99318.19;;;3.32;100.00
66668;BME280;57205;51.438;-2.006;2023-01-15T01:29:30;99331.72;;;3.35;100.00
66668;BME280;57205;51.438;-2.006;2023-01-15T01:31:56;99327.78;;;3.38;100.00
66668;BME280;57205;51.438;-2.006;2023-01-15T01:34:21;99334.66;;;3.39;100.00
66668;BME280;57205;51.438;-2.006;2023-01-15T01:36:46;99332.06;;;3.44;100.00
66668;BME280;57205;51.438;-2.006;2023-01-15T01:39:14;99335.03;;;3.47;100.00
66668;BME280;57205;51.438;-2.006;2023-01-15T01:41:40;99334.53;;;3.50;100.00
66668;BME280;57205;51.438;-2.006;2023-01-15T01:44:06;99317.13;;;3.54;100.00
66668;BME280;57205;51.438;-2.006;2023-01-15T01:46:34;99334.00;;;3.53;100.00
66668;BME280;57205;51.438;-2.006;2023-01-15T01:49:07;99333.47;;;3.51;100.00
66668;BME280;57205;51.438;-2.006;2023-01-15T01:51:40;99346.69;;;3.51;100.00
66668;BME280;57205;51.438;-2.006;2023-01-15T01:54:07;99343.81;;;3.53;100.00
66668;BME280;57205;51.438;-2.006;2023-01-15T01:56:34;99343.81;;;3.53;100.00
66668;BME280;57205;51.438;-2.006;2023-01-15T01:59:00;99337.47;;;3.54;100.00
66668;BME280;57205;51.438;-2.006;2023-01-15T02:01:26;99346.50;;;3.58;100.00
66668;BME280;57205;51.438;-2.006;2023-01-15T02:03:52;99342.88;;;3.64;100.00
66668;BME280;57205;51.438;-2.006;2023-01-15T02:06:17;99344.25;;;3.71;100.00
66668;BME280;57205;51.438;-2.006;2023-01-15T02:08:43;99340.56;;;3.72;100.00
66668;BME280;57205;51.438;-2.006;2023-01-15T02:11:11;99352.22;;;3.76;100.00
66668;BME280;57205;51.438;-2.006;2023-01-15T02:13:39;99344.59;;;3.80;100.00
66668;BME280;57205;51.438;-2.006;2023-01-15T02:16:22;99346.69;;;3.78;100.00
66668;BME280;57205;51.438;-2.006;2023-01-15T02:18:55;99339.25;;;3.75;100.00
66668;BME280;57205;51.438;-2.006;2023-01-15T02:21:26;99327.59;;;3.71;100.00
66668;BME280;57205;51.438;-2.006;2023-01-15T02:24:10;99325.19;;;3.69;100.00
66668;BME280;57205;51.438;-2.006;2023-01-15T02:26:46;99323.00;;;3.61;100.00
66668;BME280;57205;51.438;-2.006;2023-01-15T02:29:17;99312.13;;;3.58;100.00
66668;BME280;57205;51.438;-2.006;2023-01-15T02:31:44;99311.28;;;3.52;100.00
66668;BME280;57205;51.438;-2.006;2023-01-15T02:34:15;99313.88;;;3.47;100.00
66668;BME280;57205;51.438;-2.006;2023-01-15T02:36:43;99315.41;;;3.43;100.00
66668;BME280;57205;51.438;-2.006;2023-01-15T02:39:11;99308.47;;;3.37;100.00
66668;BME280;57205;51.438;-2.006;2023-01-15T02:41:39;99303.91;;;3.33;100.00
66668;BME280;57205;51.438;-2.006;2023-01-15T02:44:07;99308.13;;;3.29;100.00
66668;BME280;57205;51.438;-2.006;2023-01-15T02:46:33;99321.28;;;3.24;100.00
66668;BME280;57205;51.438;-2.006;2023-01-15T02:49:00;99333.72;;;3.23;100.00
66668;BME280;57205;51.438;-2.006;2023-01-15T02:51:29;99337.94;;;3.24;100.00
66668;BME280;57205;51.438;-2.006;2023-01-15T02:53:56;99330.06;;;3.29;100.00
66668;BME280;57205;51.438;-2.006;2023-01-15T02:56:24;99332.53;;;3.36;100.00
66668;BME280;57205;51.438;-2.006;2023-01-15T02:58:51;99334.69;;;3.44;100.00
66668;BME280;57205;51.438;-2.006;2023-01-15T03:01:21;99350.63;;;3.49;100.00
66668;BME280;57205;51.438;-2.006;2023-01-15T03:08:53;99338.25;;;3.54;100.00
66668;BME280;57205;51.438;-2.006;2023-01-15T03:11:18;99342.19;;;3.52;100.00
66668;BME280;57205;51.438;-2.006;2023-01-15T03:16:13;99341.16;;;3.53;100.00
66668;BME280;57205;51.438;-2.006;2023-01-15T03:19:18;99341.34;;;3.46;100.00
66668;BME280;57205;51.438;-2.006;2023-01-15T03:22:29;99335.25;;;3.46;100.00
66668;BME280;57205;51.438;-2.006;2023-01-15T03:24:37;99322.00;;;3.41;100.00
66668;BME280;57205;51.438;-2.006;2023-01-15T03:27:04;99315.34;;;3.38;100.00
66668;BME280;57205;51.438;-2.006;2023-01-15T03:29:30;99312.19;;;3.36;100.00
66668;BME280;57205;51.438;-2.006;2023-01-15T03:31:57;99309.22;;;3.33;100.00
66668;BME280;57205;51.438;-2.006;2023-01-15T03:34:23;99307.63;;;3.32;100.00
66668;BME280;57205;51.438;-2.006;2023-01-15T03:36:49;99303.91;;;3.33;100.00
66668;BME280;57205;51.438;-2.006;2023-01-15T03:39:14;99321.94;;;3.36;100.00
66668;BME280;57205;51.438;-2.006;2023-01-15T03:49:33;99285.56;;;3.48;100.00
66668;BME280;57205;51.438;-2.006;2023-01-15T03:52:04;99274.94;;;3.43;100.00
66668;BME280;57205;51.438;-2.006;2023-01-15T03:54:48;99268.88;;;3.42;100.00
66668;BME280;57205;51.438;-2.006;2023-01-15T03:59:58;99273.31;;;3.37;100.00
66668;BME280;57205;51.438;-2.006;2023-01-15T04:02:25;99250.06;;;3.39;100.00
66668;BME280;57205;51.438;-2.006;2023-01-15T04:04:52;99258.84;;;3.44;100.00
66668;BME280;57205;51.438;-2.006;2023-01-15T04:07:19;99260.69;;;3.44;100.00
66668;BME280;57205;51.438;-2.006;2023-01-15T04:09:45;99258.03;;;3.44;100.00
66668;BME280;57205;51.438;-2.006;2023-01-15T04:12:10;99267.03;;;3.43;100.00
66668;BME280;57205;51.438;-2.006;2023-01-15T04:14:36;99270.19;;;3.40;100.00
66668;BME280;57205;51.438;-2.006;2023-01-15T04:17:01;99272.03;;;3.39;100.00
66668;BME280;57205;51.438;-2.006;2023-01-15T04:19:27;99277.06;;;3.41;100.00
66668;BME280;57205;51.438;-2.006;2023-01-15T04:21:52;99269.13;;;3.41;100.00
66668;BME280;57205;51.438;-2.006;2023-01-15T04:24:17;99277.59;;;3.43;100.00
66668;BME280;57205;51.438;-2.006;2023-01-15T04:26:43;99277.59;;;3.43;100.00
66668;BME280;57205;51.438;-2.006;2023-01-15T04:29:08;99294.00;;;3.45;100.00
66668;BME280;57205;51.438;-2.006;2023-01-15T04:31:33;99289.28;;;3.47;100.00
66668;BME280;57205;51.438;-2.006;2023-01-15T04:34:00;99286.66;;;3.52;100.00
66668;BME280;57205;51.438;-2.006;2023-01-15T04:36:25;99268.19;;;3.57;100.00
66668;BME280;57205;51.438;-2.006;2023-01-15T04:38:51;99261.06;;;3.57;100.00
66668;BME280;57205;51.438;-2.006;2023-01-15T04:41:16;99273.75;;;3.55;100.00
66668;BME280;57205;51.438;-2.006;2023-01-15T04:44:00;99263.72;;;3.57;100.00
66668;BME280;57205;51.438;-2.006;2023-01-15T04:46:52;99259.78;;;3.60;100.00
66668;BME280;57205;51.438;-2.006;2023-01-15T04:49:17;99262.44;;;3.60;100.00
66668;BME280;57205;51.438;-2.006;2023-01-15T04:51:42;99270.38;;;3.65;100.00
66668;BME280;57205;51.438;-2.006;2023-01-15T04:54:08;99274.66;;;3.66;100.00
66668;BME280;57205;51.438;-2.006;2023-01-15T04:56:41;99271.75;;;3.67;100.00
66668;BME280;57205;51.438;-2.006;2023-01-15T04:59:07;99272.28;;;3.69;100.00
66668;BME280;57205;51.438;-2.006;2023-01-15T05:01:32;99248.72;;;3.68;100.00
66668;BME280;57205;51.438;-2.006;2023-01-15T05:03:58;99252.13;;;3.63;100.00
66668;BME280;57205;51.438;-2.006;2023-01-15T05:06:24;99244.94;;;3.59;100.00
66668;BME280;57205;51.438;-2.006;2023-01-15T05:08:49;99243.88;;;3.55;100.00
66668;BME280;57205;51.438;-2.006;2023-01-15T05:11:14;99252.00;;;3.48;100.00
66668;BME280;57205;51.438;-2.006;2023-01-15T05:13:40;99251.16;;;3.43;100.00
66668;BME280;57205;51.438;-2.006;2023-01-15T05:18:33;99228.88;;;3.34;100.00
66668;BME280;57205;51.438;-2.006;2023-01-15T05:20:59;99223.03;;;3.32;100.00
66668;BME280;57205;51.438;-2.006;2023-01-15T05:23:24;99214.81;;;3.28;100.00
66668;BME280;57205;51.438;-2.006;2023-01-15T05:25:50;99225.66;;;3.27;100.00
66668;BME280;57205;51.438;-2.006;2023-01-15T05:28:15;99224.84;;;3.26;100.00
66668;BME280;57205;51.438;-2.006;2023-01-15T05:30:40;99233.81;;;3.25;100.00
66668;BME280;57205;51.438;-2.006;2023-01-15T05:33:05;99220.91;;;3.29;100.00
66668;BME280;57205;51.438;-2.006;2023-01-15T05:35:31;99214.59;;;3.35;100.00
66668;BME280;57205;51.438;-2.006;2023-01-15T05:37:56;99216.75;;;3.38;100.00
66668;BME280;57205;51.438;-2.006;2023-01-15T05:40:21;99215.22;;;3.42;100.00
66668;BME280;57205;51.438;-2.006;2023-01-15T05:42:46;99209.41;;;3.45;100.00
66668;BME280;57205;51.438;-2.006;2023-01-15T05:45:12;99211.53;;;3.48;100.00
66668;BME280;57205;51.438;-2.006;2023-01-15T05:47:37;99212.59;;;3.47;100.00
66668;BME280;57205;51.438;-2.006;2023-01-15T05:50:02;99207.06;;;3.48;100.00
66668;BME280;57205;51.438;-2.006;2023-01-15T05:52:28;99209.72;;;3.53;100.00
66668;BME280;57205;51.438;-2.006;2023-01-15T05:54:53;99205.25;;;3.54;100.00
66668;BME280;57205;51.438;-2.006;2023-01-15T05:57:18;99199.44;;;3.57;100.00
66668;BME280;57205;51.438;-2.006;2023-01-15T05:59:43;99210.03;;;3.57;100.00
66668;BME280;57205;51.438;-2.006;2023-01-15T06:02:09;99206.34;;;3.58;100.00
66668;BME280;57205;51.438;-2.006;2023-01-15T06:04:34;99206.34;;;3.58;100.00
66668;BME280;57205;51.438;-2.006;2023-01-15T06:06:59;99220.38;;;3.58;100.00
66668;BME280;57205;51.438;-2.006;2023-01-15T06:09:25;99217.19;;;3.56;100.00
66668;BME280;57205;51.438;-2.006;2023-01-15T06:11:51;99200.50;;;3.56;100.00
66668;BME280;57205;51.438;-2.006;2023-01-15T06:14:18;99205.53;;;3.57;100.00
66668;BME280;57205;51.438;-2.006;2023-01-15T06:16:43;99209.53;;;3.60;100.00
66668;BME280;57205;51.438;-2.006;2023-01-15T06:19:08;99210.06;;;3.62;100.00
66668;BME280;57205;51.438;-2.006;2023-01-15T06:21:35;99219.59;;;3.63;100.00
66668;BME280;57205;51.438;-2.006;2023-01-15T06:24:00;99220.69;;;3.67;100.00
66668;BME280;57205;51.438;-2.006;2023-01-15T06:26:26;99208.00;;;3.69;100.00
66668;BME280;57205;51.438;-2.006;2023-01-15T06:28:51;99220.72;;;3.72;100.00
66668;BME280;57205;51.438;-2.006;2023-01-15T06:31:18;99219.44;;;3.79;100.00
66668;BME280;57205;51.438;-2.006;2023-01-15T06:33:43;99228.44;;;3.78;100.00
66668;BME280;57205;51.438;-2.006;2023-01-15T06:36:10;99222.91;;;3.80;100.00
66668;BME280;57205;51.438;-2.006;2023-01-15T06:38:36;99226.63;;;3.84;100.00
66668;BME280;57205;51.438;-2.006;2023-01-15T06:41:02;99226.63;;;3.84;100.00
66668;BME280;57205;51.438;-2.006;2023-01-15T06:43:28;99203.38;;;3.86;100.00
66668;BME280;57205;51.438;-2.006;2023-01-15T06:46:12;99207.06;;;3.85;100.00
66668;BME280;57205;51.438;-2.006;2023-01-15T06:48:55;99230.88;;;3.85;100.00
66668;BME280;57205;51.438;-2.006;2023-01-15T06:51:21;99229.31;;;3.89;100.00
66668;BME280;57205;51.438;-2.006;2023-01-15T06:53:46;99235.66;;;3.88;100.00
66668;BME280;57205;51.438;-2.006;2023-01-15T06:56:12;99230.91;;;3.90;100.00
66668;BME280;57205;51.438;-2.006;2023-01-15T06:58:41;99228.00;;;3.91;100.00
66668;BME280;57205;51.438;-2.006;2023-01-15T07:01:10;99225.09;;;3.88;100.00
66668;BME280;57205;51.438;-2.006;2023-01-15T07:03:35;99216.84;;;3.84;100.00
66668;BME280;57205;51.438;-2.006;2023-01-15T07:06:19;99211.50;;;3.79;100.00
66668;BME280;57205;51.438;-2.006;2023-01-15T07:08:44;99218.88;;;3.72;100.00
66668;BME280;57205;51.438;-2.006;2023-01-15T07:11:09;99219.41;;;3.69;100.00
66668;BME280;57205;51.438;-2.006;2023-01-15T07:13:35;99206.91;;;3.65;100.00
66668;BME280;57205;51.438;-2.006;2023-01-15T07:16:01;99208.44;;;3.56;100.00
66668;BME280;57205;51.438;-2.006;2023-01-15T07:18:27;99205.25;;;3.54;100.00
66668;BME280;57205;51.438;-2.006;2023-01-15T07:20:53;99201.56;;;3.55;100.00
66668;BME280;57205;51.438;-2.006;2023-01-15T07:23:20;99216.41;;;3.61;100.00
66668;BME280;57205;51.438;-2.006;2023-01-15T07:25:45;99209.00;;;3.63;100.00
66668;BME280;57205;51.438;-2.006;2023-01-15T07:28:10;99200.28;;;3.62;100.00
66668;BME280;57205;51.438;-2.006;2023-01-15T07:30:35;99212.47;;;3.63;100.00
66668;BME280;57205;51.438;-2.006;2023-01-15T07:33:01;99211.66;;;3.63;100.00
66668;BME280;57205;51.438;-2.006;2023-01-15T07:35:26;99212.22;;;3.65;100.00
66668;BME280;57205;51.438;-2.006;2023-01-15T07:37:51;99220.69;;;3.67;100.00
66668;BME280;57205;51.438;-2.006;2023-01-15T07:40:17;99240.03;;;3.72;100.00
66668;BME280;57205;51.438;-2.006;2023-01-15T07:42:42;99239.22;;;3.72;100.00
66668;BME280;57205;51.438;-2.006;2023-01-15T07:45:26;99233.47;;;3.80;100.00
66668;BME280;57205;51.438;-2.006;2023-01-15T07:48:29;99220.50;;;3.78;100.00
66668;BME280;57205;51.438;-2.006;2023-01-15T07:51:13;99228.22;;;3.85;100.00
66668;BME280;57205;51.438;-2.006;2023-01-15T07:53:39;99231.38;;;3.82;100.00
66668;BME280;57205;51.438;-2.006;2023-01-15T07:56:04;99238.22;;;3.78;100.00
66668;BME280;57205;51.438;-2.006;2023-01-15T07:58:29;99225.53;;;3.80;100.00
66668;BME280;57205;51.438;-2.006;2023-01-15T08:00:54;99214.41;;;3.78;100.00
66668;BME280;57205;51.438;-2.006;2023-01-15T08:03:20;99222.59;;;3.71;100.00
66668;BME280;57205;51.438;-2.006;2023-01-15T08:05:45;99214.88;;;3.70;100.00
66668;BME280;57205;51.438;-2.006;2023-01-15T08:08:17;99221.22;;;3.69;100.00
66668;BME280;57205;51.438;-2.006;2023-01-15T08:10:42;99220.69;;;3.67;100.00
66668;BME280;57205;51.438;-2.006;2023-01-15T08:13:26;99219.34;;;3.64;100.00
66668;BME280;57205;51.438;-2.006;2023-01-15T08:16:10;99223.84;;;3.64;100.00
66668;BME280;57205;51.438;-2.006;2023-01-15T08:18:36;99222.78;;;3.65;100.00
66668;BME280;57205;51.438;-2.006;2023-01-15T08:21:01;99223.88;;;3.69;100.00
66668;BME280;57205;51.438;-2.006;2023-01-15T08:23:27;99223.91;;;3.74;100.00
66668;BME280;57205;51.438;-2.006;2023-01-15T08:25:52;99212.28;;;3.75;100.00
66668;BME280;57205;51.438;-2.006;2023-01-15T08:28:17;99218.63;;;3.74;100.00
66668;BME280;57205;51.438;-2.006;2023-01-15T08:30:43;99220.25;;;3.80;100.00
66668;BME280;57205;51.438;-2.006;2023-01-15T08:33:08;99217.91;;;3.83;100.00
66668;BME280;57205;51.438;-2.006;2023-01-15T08:35:33;99213.97;;;3.86;100.00
66668;BME280;57205;51.438;-2.006;2023-01-15T08:38:02;99217.63;;;3.85;100.00
66668;BME280;57205;51.438;-2.006;2023-01-15T08:40:27;99218.97;;;3.82;100.00
66668;BME280;57205;51.438;-2.006;2023-01-15T08:42:53;99221.84;;;3.81;100.00
66668;BME280;57205;51.438;-2.006;2023-01-15T08:45:18;99227.38;;;3.79;100.00
66668;BME280;57205;51.438;-2.006;2023-01-15T08:47:43;99235.59;;;3.78;100.00
66668;BME280;57205;51.438;-2.006;2023-01-15T08:50:09;99235.03;;;3.76;100.00
66668;BME280;57205;51.438;-2.006;2023-01-15T08:52:34;99243.22;;;3.74;100.00
66668;BME280;57205;51.438;-2.006;2023-01-15T08:55:00;99249.63;;;3.78;100.00
66668;BME280;57205;51.438;-2.006;2023-01-15T08:57:25;99252.03;;;3.85;100.00
66668;BME280;57205;51.438;-2.006;2023-01-15T08:59:50;99254.19;;;3.88;100.00
66668;BME280;57205;51.438;-2.006;2023-01-15T09:02:16;99261.34;;;3.92;100.00
66668;BME280;57205;51.438;-2.006;2023-01-15T09:04:42;99265.63;;;3.98;100.00
66668;BME280;57205;51.438;-2.006;2023-01-15T09:07:07;99277.13;;;4.14;100.00
66668;BME280;57205;51.438;-2.006;2023-01-15T09:09:33;99283.59;;;4.33;100.00
66668;BME280;57205;51.438;-2.006;2023-01-15T09:11:58;99282.56;;;4.39;100.00
66668;BME280;57205;51.438;-2.006;2023-01-15T09:14:24;99285.22;;;4.44;100.00
66668;BME280;57205;51.438;-2.006;2023-01-15T09:16:49;99278.63;;;4.47;100.00
66668;BME280;57205;51.438;-2.006;2023-01-15T09:19:14;99283.47;;;4.55;100.00
66668;BME280;57205;51.438;-2.006;2023-01-15T09:21:40;99273.94;;;4.59;100.00
66668;BME280;57205;51.438;-2.006;2023-01-15T09:24:05;99274.50;;;4.71;100.00
66668;BME280;57205;51.438;-2.006;2023-01-15T09:26:31;99276.97;;;4.87;100.00
66668;BME280;57205;51.438;-2.006;2023-01-15T09:28:57;99275.13;;;4.98;100.00
66668;BME280;57205;51.438;-2.006;2023-01-15T09:31:23;99274.63;;;5.01;100.00
66668;BME280;57205;51.438;-2.006;2023-01-15T09:33:48;99284.97;;;5.03;100.00
66668;BME280;57205;51.438;-2.006;2023-01-15T09:36:17;99302.44;;;4.98;100.00
66668;BME280;57205;51.438;-2.006;2023-01-15T09:38:44;99298.97;;;4.93;100.00
66668;BME280;57205;51.438;-2.006;2023-01-15T09:41:12;99279.34;;;4.84;100.00
66668;BME280;57205;51.438;-2.006;2023-01-15T09:49:42;99285.38;;;4.69;100.00
66668;BME280;57205;51.438;-2.006;2023-01-15T09:52:17;99281.09;;;4.63;100.00
66668;BME280;57205;51.438;-2.006;2023-01-15T09:57:15;99323.47;;;4.58;100.00
66668;BME280;57205;51.438;-2.006;2023-01-15T09:59:43;99313.91;;;4.57;100.00
66668;BME280;57205;51.438;-2.006;2023-01-15T10:02:23;99308.59;;;4.57;100.00
66668;BME280;57205;51.438;-2.006;2023-01-15T10:05:03;99308.34;;;4.54;100.00
66668;BME280;57205;51.438;-2.006;2023-01-15T10:07:52;99312.59;;;4.55;100.00
66668;BME280;57205;51.438;-2.006;2023-01-15T10:10:21;99316.56;;;4.57;100.00
66668;BME280;57205;51.438;-2.006;2023-01-15T10:12:49;99317.09;;;4.59;100.00
66668;BME280;57205;51.438;-2.006;2023-01-15T10:15:29;99325.31;;;4.63;100.00
66668;BME280;57205;51.438;-2.006;2023-01-15T10:17:57;99326.22;;;4.78;100.00
66668;BME280;57205;51.438;-2.006;2023-01-15T10:25:30;99336.50;;;5.32;100.00
66668;BME280;57205;51.438;-2.006;2023-01-15T10:28:01;99339.72;;;5.49;100.00
66668;BME280;57205;51.438;-2.006;2023-01-15T10:30:40;99333.69;;;5.68;100.00
66668;BME280;57205;51.438;-2.006;2023-01-15T10:33:18;99345.91;;;5.89;100.00
66668;BME280;57205;51.438;-2.006;2023-01-15T10:45:55;99359.19;;;6.05;100.00
66668;BME280;57205;51.438;-2.006;2023-01-15T10:51:00;99359.75;;;6.02;100.00
66668;BME280;57205;51.438;-2.006;2023-01-15T10:55:52;99352.56;;;5.97;100.00
66668;BME280;57205;51.438;-2.006;2023-01-15T11:00:45;99336.66;;;5.87;100.00
66668;BME280;57205;51.438;-2.006;2023-01-15T11:03:15;99326.78;;;5.82;100.00
66668;BME280;57205;51.438;-2.006;2023-01-15T11:05:42;99330.22;;;5.78;100.00
66668;BME280;57205;51.438;-2.006;2023-01-15T11:08:18;99329.16;;;5.74;100.00
66668;BME280;57205;51.438;-2.006;2023-01-15T11:10:46;99333.94;;;5.72;100.00
66668;BME280;57205;51.438;-2.006;2023-01-15T11:13:21;99326.50;;;5.74;100.00
66668;BME280;57205;51.438;-2.006;2023-01-15T11:16:12;99332.34;;;5.81;100.00
66668;BME280;57205;51.438;-2.006;2023-01-15T11:19:22;99336.59;;;5.77;100.00
66668;BME280;57205;51.438;-2.006;2023-01-15T11:22:09;99326.25;;;5.75;100.00
66668;BME280;57205;51.438;-2.006;2023-01-15T11:24:36;99329.69;;;5.81;100.00
66668;BME280;57205;51.438;-2.006;2023-01-15T11:27:03;99337.69;;;5.91;100.00
66668;BME280;57205;51.438;-2.006;2023-01-15T11:31:54;99347.50;;;6.21;100.00
66668;BME280;57205;51.438;-2.006;2023-01-15T11:34:20;99340.34;;;6.21;100.00
66668;BME280;57205;51.438;-2.006;2023-01-15T11:36:46;99337.69;;;6.16;100.00
66668;BME280;57205;51.438;-2.006;2023-01-15T11:39:22;99335.56;;;6.13;100.00
66668;BME280;57205;51.438;-2.006;2023-01-15T11:41:47;99336.63;;;6.12;100.00
66668;BME280;57205;51.438;-2.006;2023-01-15T11:44:31;99336.66;;;6.07;100.00
66668;BME280;57205;51.438;-2.006;2023-01-15T11:47:16;99338.22;;;6.03;100.00
66668;BME280;57205;51.438;-2.006;2023-01-15T11:50:00;99336.91;;;6.01;100.00
66668;BME280;57205;51.438;-2.006;2023-01-15T11:52:49;99321.22;;;5.74;100.00
66668;BME280;57205;51.438;-2.006;2023-01-15T11:55:17;99324.38;;;5.61;100.00
66668;BME280;57205;51.438;-2.006;2023-01-15T11:57:43;99314.00;;;5.44;100.00
66668;BME280;57205;51.438;-2.006;2023-01-15T12:02:45;99289.56;;;5.37;100.00
66668;BME280;57205;51.438;-2.006;2023-01-15T12:05:14;99275.50;;;5.32;100.00
66668;BME280;57205;51.438;-2.006;2023-01-15T12:07:41;99290.88;;;5.30;100.00
66668;BME280;57205;51.438;-2.006;2023-01-15T12:10:25;99289.56;;;5.27;100.00
66668;BME280;57205;51.438;-2.006;2023-01-15T12:18:28;99294.81;;;5.17;100.00
66668;BME280;57205;51.438;-2.006;2023-01-15T12:28:21;99290.59;;;5.21;100.00
66668;BME280;57205;51.438;-2.006;2023-01-15T12:35:57;99285.09;;;5.48;100.00
66668;BME280;57205;51.438;-2.006;2023-01-15T12:41:00;99289.38;;;5.74;100.00
66668;BME280;57205;51.438;-2.006;2023-01-15T12:43:26;99284.06;;;5.94;100.00
66668;BME280;57205;51.438;-2.006;2023-01-15T12:46:15;99283.50;;;6.17;100.00
66668;BME280;57205;51.438;-2.006;2023-01-15T12:51:37;99272.56;;;6.54;100.00
66668;BME280;57205;51.438;-2.006;2023-01-15T12:54:03;99277.56;;;6.60;100.00
66668;BME280;57205;51.438;-2.006;2023-01-15T13:02:15;99254.84;;;6.98;100.00
66668;BME280;57205;51.438;-2.006;2023-01-15T13:04:46;99242.84;;;7.06;100.00
66668;BME280;57205;51.438;-2.006;2023-01-15T13:12:21;99234.59;;;7.46;100.00
66668;BME280;57205;51.438;-2.006;2023-01-15T13:14:46;99238.00;;;7.51;100.00
66668;BME280;57205;51.438;-2.006;2023-01-15T13:35:48;99242.66;;;5.98;100.00
66668;BME280;57205;51.438;-2.006;2023-01-15T13:38:17;99246.38;;;5.92;100.00
66668;BME280;57205;51.438;-2.006;2023-01-15T13:40:44;99233.63;;;5.89;100.00
66668;BME280;57205;51.438;-2.006;2023-01-15T13:45:52;99237.88;;;5.75;100.00
66668;BME280;57205;51.438;-2.006;2023-01-15T13:48:18;99237.59;;;5.71;100.00
66668;BME280;57205;51.438;-2.006;2023-01-15T13:50:50;99240.81;;;5.68;100.00
66668;BME280;57205;51.438;-2.006;2023-01-15T13:55:49;99229.38;;;5.63;100.00
66668;BME280;57205;51.438;-2.006;2023-01-15T13:58:19;99218.78;;;5.63;100.00
66668;BME280;57205;51.438;-2.006;2023-01-15T14:00:45;99222.22;;;5.63;100.00
66668;BME280;57205;51.438;-2.006;2023-01-15T14:03:24;99217.69;;;5.64;100.00
66668;BME280;57205;51.438;-2.006;2023-01-15T14:05:57;99222.47;;;5.62;100.00
66668;BME280;57205;51.438;-2.006;2023-01-15T14:08:26;99212.41;;;5.64;100.00
66668;BME280;57205;51.438;-2.006;2023-01-15T14:10:52;99215.06;;;5.64;100.00
66668;BME280;57205;51.438;-2.006;2023-01-15T14:13:38;99210.28;;;5.66;100.00
66668;BME280;57205;51.438;-2.006;2023-01-15T14:16:19;99218.22;;;5.66;100.00
66668;BME280;57205;51.438;-2.006;2023-01-15T14:21:43;99216.13;;;5.68;100.00
66668;BME280;57205;51.438;-2.006;2023-01-15T14:27:38;99206.53;;;5.67;100.00
66668;BME280;57205;51.438;-2.006;2023-01-15T14:34:42;99202.03;;;5.67;100.00
66668;BME280;57205;51.438;-2.006;2023-01-15T14:42:34;99202.31;;;5.66;100.00
66668;BME280;57205;51.438;-2.006;2023-01-15T14:45:24;99202.31;;;5.66;100.00
66668;BME280;57205;51.438;-2.006;2023-01-15T14:47:51;99202.31;;;5.66;100.00
66668;BME280;57205;51.438;-2.006;2023-01-15T14:52:53;99201.25;;;5.62;100.00
66668;BME280;57205;51.438;-2.006;2023-01-15T14:55:19;99182.16;;;5.60;100.00
66668;BME280;57205;51.438;-2.006;2023-01-15T14:57:47;99189.56;;;5.58;100.00
66668;BME280;57205;51.438;-2.006;2023-01-15T15:00:15;99192.78;;;5.55;100.00
66668;BME280;57205;51.438;-2.006;2023-01-15T15:02:42;99185.63;;;5.55;100.00
66668;BME280;57205;51.438;-2.006;2023-01-15T15:05:18;99189.59;;;5.53;100.00
66668;BME280;57205;51.438;-2.006;2023-01-15T15:07:48;99182.94;;;5.50;100.00
66668;BME280;57205;51.438;-2.006;2023-01-15T15:12:43;99191.44;;;5.47;100.00
66668;BME280;57205;51.438;-2.006;2023-01-15T15:20:32;99185.34;;;5.37;100.00
66668;BME280;57205;51.438;-2.006;2023-01-15T15:23:05;99193.53;;;5.35;100.00